sensor_id;sensor_type;location;lat;lon;timestamp;pressure;altitude;pressure_sealevel;temperature;humidity
77299;BME280;66361;52.034;20.656;2024-01-30T00:02:52;101677.00;;;1.27;78.28
77299;BME280;66361;52.034;20.656;2024-01-30T00:06:37;101669.00;;;1.18;79.28
77299;BME280;66361;52.034;20.656;2024-01-30T00:10:22;101663.59;;;1.09;79.07
77299;BME280;66361;52.034;20.656;2024-01-30T00:14:06;101675.63;;;1.04;79.96
77299;BME280;66361;52.034;20.656;2024-01-30T00:17:50;101664.06;;;1.30;78.82
77299;BME280;66361;52.034;20.656;2024-01-30T00:21:35;101662.66;;;1.46;78.57
77299;BME280;66361;52.034;20.656;2024-01-30T00:25:19;101650.38;;;1.39;78.96
77299;BME280;66361;52.034;20.656;2024-01-30T00:29:04;101651.63;;;1.16;79.30
77299;BME280;66361;52.034;20.656;2024-01-30T00:32:48;101647.75;;;1.37;78.03
77299;BME280;66361;52.034;20.656;2024-01-30T00:36:32;101643.25;;;1.29;78.11
77299;BME280;66361;52.034;20.656;2024-01-30T00:40:16;101644.16;;;1.31;78.67
77299;BME280;66361;52.034;20.656;2024-01-30T00:44:01;101648.38;;;1.26;78.01
77299;BME280;66361;52.034;20.656;2024-01-30T00:47:46;101655.63;;;1.41;77.68
77299;BME280;66361;52.034;20.656;2024-01-30T00:51:30;101650.34;;;1.36;77.42
77299;BME280;66361;52.034;20.656;2024-01-30T00:55:14;101651.09;;;1.32;77.18
77299;BME280;66361;52.034;20.656;2024-01-30T00:58:58;101653.19;;;1.08;78.17
77299;BME280;66361;52.034;20.656;2024-01-30T01:02:42;101654.94;;;1.07;78.44
77299;BME280;66361;52.034;20.656;2024-01-30T01:06:27;101649.19;;;1.22;78.18
77299;BME280;66361;52.034;20.656;2024-01-30T01:10:11;101647.38;;;1.19;77.81
77299;BME280;66361;52.034;20.656;2024-01-30T01:13:56;101638.28;;;0.99;78.52
77299;BME280;66361;52.034;20.656;2024-01-30T01:17:40;101637.94;;;0.84;78.54
77299;BME280;66361;52.034;20.656;2024-01-30T01:21:24;101644.91;;;0.86;79.37
77299;BME280;66361;52.034;20.656;2024-01-30T01:25:10;101637.47;;;1.00;78.15
77299;BME280;66361;52.034;20.656;2024-01-30T01:28:54;101634.41;;;1.19;77.78
77299;BME280;66361;52.034;20.656;2024-01-30T01:32:38;101629.78;;;1.08;78.03
77299;BME280;66361;52.034;20.656;2024-01-30T01:36:27;101625.00;;;0.85;78.29
77299;BME280;66361;52.034;20.656;2024-01-30T01:40:12;101618.75;;;0.77;79.08
77299;BME280;66361;52.034;20.656;2024-01-30T01:43:57;101623.59;;;0.99;78.27
77299;BME280;66361;52.034;20.656;2024-01-30T01:47:43;101624.44;;;0.98;78.77
77299;BME280;66361;52.034;20.656;2024-01-30T01:51:29;101618.19;;;0.90;78.65
77299;BME280;66361;52.034;20.656;2024-01-30T01:55:16;101626.56;;;0.77;78.37
77299;BME280;66361;52.034;20.656;2024-01-30T01:59:05;101624.66;;;0.72;78.19
77299;BME280;66361;52.034;20.656;2024-01-30T02:02:53;101616.75;;;0.66;79.11
77299;BME280;66361;52.034;20.656;2024-01-30T02:06:38;101616.66;;;0.61;78.41
77299;BME280;66361;52.034;20.656;2024-01-30T02:10:24;101613.47;;;0.37;79.02
77299;BME280;66361;52.034;20.656;2024-01-30T02:14:08;101610.28;;;0.12;79.66
77299;BME280;66361;52.034;20.656;2024-01-30T02:17:52;101601.47;;;0.04;80.03
77299;BME280;66361;52.034;20.656;2024-01-30T02:21:38;101609.91;;;-0.03;81.35
77299;BME280;66361;52.034;20.656;2024-01-30T02:25:30;101605.72;;;0.02;81.27
77299;BME280;66361;52.034;20.656;2024-01-30T02:29:15;101603.16;;;0.04;81.58
77299;BME280;66361;52.034;20.656;2024-01-30T02:32:59;101606.09;;;-0.17;81.86
77299;BME280;66361;52.034;20.656;2024-01-30T02:36:44;101603.81;;;-0.05;82.31
77299;BME280;66361;52.034;20.656;2024-01-30T02:40:28;101603.38;;;-0.22;82.46
77299;BME280;66361;52.034;20.656;2024-01-30T02:44:13;101606.66;;;0.06;81.79
77299;BME280;66361;52.034;20.656;2024-01-30T02:47:57;101600.63;;;0.07;81.90
77299;BME280;66361;52.034;20.656;2024-01-30T02:51:41;101612.53;;;-0.01;81.61
77299;BME280;66361;52.034;20.656;2024-01-30T02:55:27;101614.28;;;-0.00;81.78
77299;BME280;66361;52.034;20.656;2024-01-30T02:59:11;101612.81;;;0.09;81.14
77299;BME280;66361;52.034;20.656;2024-01-30T03:02:55;101612.34;;;-0.09;81.22
77299;BME280;66361;52.034;20.656;2024-01-30T03:06:44;101612.78;;;-0.25;82.11
77299;BME280;66361;52.034;20.656;2024-01-30T03:10:31;101608.03;;;-0.41;82.54
77299;BME280;66361;52.034;20.656;2024-01-30T03:14:17;101606.16;;;-0.47;82.52
77299;BME280;66361;52.034;20.656;2024-01-30T03:18:01;101600.25;;;-0.41;82.41
77299;BME280;66361;52.034;20.656;2024-01-30T03:21:46;101597.63;;;-0.43;82.48
77299;BME280;66361;52.034;20.656;2024-01-30T03:25:32;101595.97;;;-0.41;82.00
77299;BME280;66361;52.034;20.656;2024-01-30T03:29:28;101605.03;;;-0.57;82.63
77299;BME280;66361;52.034;20.656;2024-01-30T03:33:19;101610.16;;;-0.58;82.61
77299;BME280;66361;52.034;20.656;2024-01-30T03:37:03;101608.72;;;-0.48;82.69
77299;BME280;66361;52.034;20.656;2024-01-30T03:40:48;101602.53;;;-0.52;82.49
77299;BME280;66361;52.034;20.656;2024-01-30T03:44:32;101607.53;;;-0.60;82.51
77299;BME280;66361;52.034;20.656;2024-01-30T03:48:16;101623.31;;;-0.50;82.59
77299;BME280;66361;52.034;20.656;2024-01-30T03:52:00;101609.38;;;-0.55;82.42
77299;BME280;66361;52.034;20.656;2024-01-30T03:55:44;101613.19;;;-0.73;82.32
77299;BME280;66361;52.034;20.656;2024-01-30T03:59:30;101602.94;;;-0.70;82.74
77299;BME280;66361;52.034;20.656;2024-01-30T04:03:14;101600.19;;;-0.76;82.32
77299;BME280;66361;52.034;20.656;2024-01-30T04:07:00;101597.38;;;-0.82;82.28
77299;BME280;66361;52.034;20.656;2024-01-30T04:10:46;101591.22;;;-0.87;82.74
77299;BME280;66361;52.034;20.656;2024-01-30T04:14:31;101604.03;;;-0.91;82.93
77299;BME280;66361;52.034;20.656;2024-01-30T04:18:15;101601.69;;;-0.82;82.82
77299;BME280;66361;52.034;20.656;2024-01-30T04:21:59;101599.09;;;-0.82;82.95
77299;BME280;66361;52.034;20.656;2024-01-30T04:25:43;101595.44;;;-0.90;82.61
77299;BME280;66361;52.034;20.656;2024-01-30T04:29:27;101609.22;;;-0.91;83.02
77299;BME280;66361;52.034;20.656;2024-01-30T04:33:13;101605.66;;;-0.95;82.89
77299;BME280;66361;52.034;20.656;2024-01-30T04:36:57;101608.84;;;-1.04;83.14
77299;BME280;66361;52.034;20.656;2024-01-30T04:40:41;101597.00;;;-0.96;83.11
77299;BME280;66361;52.034;20.656;2024-01-30T04:44:25;101606.56;;;-0.93;83.35
77299;BME280;66361;52.034;20.656;2024-01-30T04:48:09;101608.25;;;-0.95;83.46
77299;BME280;66361;52.034;20.656;2024-01-30T04:51:55;101603.59;;;-1.07;83.53
77299;BME280;66361;52.034;20.656;2024-01-30T04:55:39;101612.84;;;-1.15;83.75
77299;BME280;66361;52.034;20.656;2024-01-30T04:59:23;101599.00;;;-1.15;83.86
77299;BME280;66361;52.034;20.656;2024-01-30T05:03:07;101598.09;;;-1.17;83.94
77299;BME280;66361;52.034;20.656;2024-01-30T05:06:50;101602.97;;;-1.26;84.25
77299;BME280;66361;52.034;20.656;2024-01-30T05:10:36;101592.84;;;-1.20;84.12
77299;BME280;66361;52.034;20.656;2024-01-30T05:14:20;101591.84;;;-1.24;84.50
77299;BME280;66361;52.034;20.656;2024-01-30T05:18:05;101599.84;;;-1.16;84.35
77299;BME280;66361;52.034;20.656;2024-01-30T05:21:49;101601.19;;;-1.01;83.73
77299;BME280;66361;52.034;20.656;2024-01-30T05:25:33;101604.09;;;-0.90;83.90
77299;BME280;66361;52.034;20.656;2024-01-30T05:29:18;101599.53;;;-0.97;83.88
77299;BME280;66361;52.034;20.656;2024-01-30T05:33:02;101602.78;;;-1.04;83.61
77299;BME280;66361;52.034;20.656;2024-01-30T05:36:46;101606.25;;;-1.04;83.88
77299;BME280;66361;52.034;20.656;2024-01-30T05:40:30;101610.19;;;-1.16;84.16
77299;BME280;66361;52.034;20.656;2024-01-30T05:44:14;101606.66;;;-1.20;84.18
77299;BME280;66361;52.034;20.656;2024-01-30T05:48:00;101607.63;;;-1.16;84.54
77299;BME280;66361;52.034;20.656;2024-01-30T05:51:44;101608.50;;;-1.16;84.61
77299;BME280;66361;52.034;20.656;2024-01-30T05:55:29;101605.84;;;-1.17;84.16
77299;BME280;66361;52.034;20.656;2024-01-30T05:59:13;101597.22;;;-1.18;84.45
77299;BME280;66361;52.034;20.656;2024-01-30T06:02:57;101597.81;;;-1.26;84.51
77299;BME280;66361;52.034;20.656;2024-01-30T06:06:42;101603.19;;;-1.20;84.54
77299;BME280;66361;52.034;20.656;2024-01-30T06:10:26;101599.66;;;-1.22;84.19
77299;BME280;66361;52.034;20.656;2024-01-30T06:14:10;101607.53;;;-1.19;84.40
77299;BME280;66361;52.034;20.656;2024-01-30T06:17:54;101599.13;;;-1.11;84.29
77299;BME280;66361;52.034;20.656;2024-01-30T06:21:39;101592.41;;;-1.06;84.22
77299;BME280;66361;52.034;20.656;2024-01-30T06:25:24;101596.28;;;-0.91;84.11
77299;BME280;66361;52.034;20.656;2024-01-30T06:29:08;101597.16;;;-0.89;83.94
77299;BME280;66361;52.034;20.656;2024-01-30T06:32:52;101603.44;;;-0.81;83.47
77299;BME280;66361;52.034;20.656;2024-01-30T06:36:36;101601.69;;;-0.82;83.01
77299;BME280;66361;52.034;20.656;2024-01-30T06:40:20;101612.28;;;-0.75;83.25
77299;BME280;66361;52.034;20.656;2024-01-30T06:44:05;101608.78;;;-0.75;83.14
77299;BME280;66361;52.034;20.656;2024-01-30T06:47:51;101605.53;;;-0.70;83.11
77299;BME280;66361;52.034;20.656;2024-01-30T06:51:36;101604.72;;;-0.67;82.71
77299;BME280;66361;52.034;20.656;2024-01-30T06:55:20;101614.41;;;-0.60;82.65
77299;BME280;66361;52.034;20.656;2024-01-30T06:59:05;101615.75;;;-0.43;82.24
77299;BME280;66361;52.034;20.656;2024-01-30T07:02:49;101613.19;;;-0.10;81.26
77299;BME280;66361;52.034;20.656;2024-01-30T07:06:33;101611.88;;;0.07;81.23
77299;BME280;66361;52.034;20.656;2024-01-30T07:10:17;101614.16;;;0.30;79.83
77299;BME280;66361;52.034;20.656;2024-01-30T07:14:01;101614.16;;;0.66;79.09
77299;BME280;66361;52.034;20.656;2024-01-30T07:17:48;101611.69;;;1.11;78.10
77299;BME280;66361;52.034;20.656;2024-01-30T07:21:32;101609.34;;;1.23;77.87
77299;BME280;66361;52.034;20.656;2024-01-30T07:25:16;101614.47;;;2.11;74.97
77299;BME280;66361;52.034;20.656;2024-01-30T07:29:00;101617.25;;;2.22;74.37
77299;BME280;66361;52.034;20.656;2024-01-30T07:32:45;101614.31;;;2.01;73.32
77299;BME280;66361;52.034;20.656;2024-01-30T07:36:31;101612.44;;;1.95;73.57
77299;BME280;66361;52.034;20.656;2024-01-30T07:40:18;101597.81;;;3.98;70.42
77299;BME280;66361;52.034;20.656;2024-01-30T07:44:03;101612.84;;;5.94;62.05
77299;BME280;66361;52.034;20.656;2024-01-30T07:47:47;101605.81;;;6.83;59.11
77299;BME280;66361;52.034;20.656;2024-01-30T07:51:32;101597.38;;;8.04;56.10
77299;BME280;66361;52.034;20.656;2024-01-30T07:55:17;101603.19;;;6.74;55.85
77299;BME280;66361;52.034;20.656;2024-01-30T07:59:02;101605.84;;;5.92;57.51
77299;BME280;66361;52.034;20.656;2024-01-30T08:02:46;101604.06;;;6.80;56.12
77299;BME280;66361;52.034;20.656;2024-01-30T08:06:30;101604.09;;;6.27;55.72
77299;BME280;66361;52.034;20.656;2024-01-30T08:10:16;101604.72;;;5.14;59.60
77299;BME280;66361;52.034;20.656;2024-01-30T08:14:01;101610.66;;;4.79;61.08
77299;BME280;66361;52.034;20.656;2024-01-30T08:17:45;101609.47;;;4.35;61.89
77299;BME280;66361;52.034;20.656;2024-01-30T08:21:29;101608.59;;;4.36;63.17
77299;BME280;66361;52.034;20.656;2024-01-30T08:25:13;101605.34;;;4.69;62.83
77299;BME280;66361;52.034;20.656;2024-01-30T08:28:58;101602.25;;;5.50;60.53
77299;BME280;66361;52.034;20.656;2024-01-30T08:32:43;101599.75;;;6.29;58.25
77299;BME280;66361;52.034;20.656;2024-01-30T08:36:27;101595.38;;;6.49;56.86
77299;BME280;66361;52.034;20.656;2024-01-30T08:40:11;101597.13;;;6.06;57.18
77299;BME280;66361;52.034;20.656;2024-01-30T08:43:55;101598.00;;;6.07;56.47
77299;BME280;66361;52.034;20.656;2024-01-30T08:47:41;101597.13;;;6.16;57.36
77299;BME280;66361;52.034;20.656;2024-01-30T08:51:25;101598.84;;;6.76;56.73
77299;BME280;66361;52.034;20.656;2024-01-30T08:55:10;101588.31;;;6.79;55.19
77299;BME280;66361;52.034;20.656;2024-01-30T08:58:54;101601.44;;;6.82;55.18
77299;BME280;66361;52.034;20.656;2024-01-30T09:02:37;101590.13;;;6.45;56.23
77299;BME280;66361;52.034;20.656;2024-01-30T09:06:23;101596.25;;;6.39;56.31
77299;BME280;66361;52.034;20.656;2024-01-30T09:10:09;101597.13;;;6.20;55.84
77299;BME280;66361;52.034;20.656;2024-01-30T09:13:56;101595.38;;;6.16;56.11
77299;BME280;66361;52.034;20.656;2024-01-30T09:17:40;101602.38;;;6.32;56.61
77299;BME280;66361;52.034;20.656;2024-01-30T09:21:26;101591.75;;;7.20;55.54
77299;BME280;66361;52.034;20.656;2024-01-30T09:25:10;101585.44;;;7.53;54.80
77299;BME280;66361;52.034;20.656;2024-01-30T09:28:54;101582.09;;;7.24;55.56
77299;BME280;66361;52.034;20.656;2024-01-30T09:32:39;101591.84;;;6.84;53.92
77299;BME280;66361;52.034;20.656;2024-01-30T09:36:25;101584.81;;;6.94;54.54
77299;BME280;66361;52.034;20.656;2024-01-30T09:40:10;101584.78;;;7.09;56.04
77299;BME280;66361;52.034;20.656;2024-01-30T09:43:54;101579.41;;;7.42;54.31
77299;BME280;66361;52.034;20.656;2024-01-30T09:47:42;101583.78;;;7.37;54.73
77299;BME280;66361;52.034;20.656;2024-01-30T09:51:29;101581.25;;;7.17;54.07
77299;BME280;66361;52.034;20.656;2024-01-30T09:55:14;101574.28;;;7.07;54.82
77299;BME280;66361;52.034;20.656;2024-01-30T09:58:58;101567.34;;;6.94;55.62
77299;BME280;66361;52.034;20.656;2024-01-30T10:02:42;101573.50;;;6.69;55.67
77299;BME280;66361;52.034;20.656;2024-01-30T10:06:29;101572.63;;;6.64;56.42
77299;BME280;66361;52.034;20.656;2024-01-30T10:10:13;101566.53;;;6.57;56.50
77299;BME280;66361;52.034;20.656;2024-01-30T10:13:57;101568.22;;;6.78;55.33
77299;BME280;66361;52.034;20.656;2024-01-30T10:17:41;101567.31;;;6.85;56.49
77299;BME280;66361;52.034;20.656;2024-01-30T10:21:25;101557.69;;;7.02;54.44
77299;BME280;66361;52.034;20.656;2024-01-30T10:25:11;101551.50;;;7.15;55.03
77299;BME280;66361;52.034;20.656;2024-01-30T10:28:55;101548.84;;;7.23;55.05
77299;BME280;66361;52.034;20.656;2024-01-30T10:32:39;101538.06;;;7.75;54.33
77299;BME280;66361;52.034;20.656;2024-01-30T10:36:28;101535.53;;;7.58;52.23
77299;BME280;66361;52.034;20.656;2024-01-30T10:40:14;101536.44;;;7.52;53.53
77299;BME280;66361;52.034;20.656;2024-01-30T10:44:02;101537.41;;;7.38;53.43
77299;BME280;66361;52.034;20.656;2024-01-30T10:47:55;101527.88;;;7.23;53.61
77299;BME280;66361;52.034;20.656;2024-01-30T10:51:41;101526.19;;;7.07;52.61
77299;BME280;66361;52.034;20.656;2024-01-30T10:55:28;101528.81;;;7.07;54.27
77299;BME280;66361;52.034;20.656;2024-01-30T10:59:14;101518.31;;;7.11;53.33
77299;BME280;66361;52.034;20.656;2024-01-30T11:02:58;101513.06;;;7.13;54.27
77299;BME280;66361;52.034;20.656;2024-01-30T11:06:44;101508.69;;;7.07;54.58
77299;BME280;66361;52.034;20.656;2024-01-30T11:10:30;101505.16;;;7.19;54.18
77299;BME280;66361;52.034;20.656;2024-01-30T11:14:23;101507.75;;;7.28;53.96
77299;BME280;66361;52.034;20.656;2024-01-30T11:18:08;101512.06;;;7.35;52.23
77299;BME280;66361;52.034;20.656;2024-01-30T11:21:53;101503.34;;;7.33;52.89
77299;BME280;66361;52.034;20.656;2024-01-30T11:25:43;101494.69;;;7.13;52.48
77299;BME280;66361;52.034;20.656;2024-01-30T11:29:28;101493.88;;;7.00;53.28
77299;BME280;66361;52.034;20.656;2024-01-30T11:33:13;101489.53;;;6.87;55.32
77299;BME280;66361;52.034;20.656;2024-01-30T11:37:03;101487.84;;;6.77;55.45
77299;BME280;66361;52.034;20.656;2024-01-30T11:40:48;101480.00;;;6.68;55.66
77299;BME280;66361;52.034;20.656;2024-01-30T11:44:33;101479.19;;;6.54;56.23
77299;BME280;66361;52.034;20.656;2024-01-30T11:48:17;101469.53;;;6.59;55.33
77299;BME280;66361;52.034;20.656;2024-01-30T11:52:01;101477.44;;;6.54;56.10
77299;BME280;66361;52.034;20.656;2024-01-30T11:55:51;101464.31;;;6.51;57.04
77299;BME280;66361;52.034;20.656;2024-01-30T11:59:35;101462.56;;;6.52;55.00
77299;BME280;66361;52.034;20.656;2024-01-30T12:03:19;101462.63;;;6.39;57.12
77299;BME280;66361;52.034;20.656;2024-01-30T12:07:04;101455.66;;;6.28;57.35
77299;BME280;66361;52.034;20.656;2024-01-30T12:10:56;101456.53;;;6.28;57.32
77299;BME280;66361;52.034;20.656;2024-01-30T12:14:42;101445.16;;;6.35;56.84
77299;BME280;66361;52.034;20.656;2024-01-30T12:18:26;101446.88;;;6.33;55.89
77299;BME280;66361;52.034;20.656;2024-01-30T12:22:10;101445.16;;;6.37;56.41
77299;BME280;66361;52.034;20.656;2024-01-30T12:25:58;101444.28;;;6.29;55.98
77299;BME280;66361;52.034;20.656;2024-01-30T12:29:42;101447.78;;;6.28;56.16
77299;BME280;66361;52.034;20.656;2024-01-30T12:33:27;101451.31;;;6.25;57.24
77299;BME280;66361;52.034;20.656;2024-01-30T12:37:13;101445.16;;;6.26;56.37
77299;BME280;66361;52.034;20.656;2024-01-30T12:41:03;101439.13;;;6.11;58.02
77299;BME280;66361;52.034;20.656;2024-01-30T12:44:47;101443.41;;;6.27;56.69
77299;BME280;66361;52.034;20.656;2024-01-30T12:48:34;101435.59;;;6.12;58.00
77299;BME280;66361;52.034;20.656;2024-01-30T12:52:20;101430.38;;;6.16;57.17
77299;BME280;66361;52.034;20.656;2024-01-30T12:56:06;101435.59;;;6.13;57.57
77299;BME280;66361;52.034;20.656;2024-01-30T12:59:50;101433.84;;;6.23;56.47
77299;BME280;66361;52.034;20.656;2024-01-30T13:03:34;101435.59;;;6.05;57.07
77299;BME280;66361;52.034;20.656;2024-01-30T13:07:19;101428.59;;;6.20;56.97
77299;BME280;66361;52.034;20.656;2024-01-30T13:11:04;101433.88;;;6.03;57.59
77299;BME280;66361;52.034;20.656;2024-01-30T13:14:53;101426.91;;;5.93;59.20
77299;BME280;66361;52.034;20.656;2024-01-30T13:18:37;101430.41;;;5.92;60.59
77299;BME280;66361;52.034;20.656;2024-01-30T13:22:23;101424.28;;;5.90;59.13
77299;BME280;66361;52.034;20.656;2024-01-30T13:26:07;101426.91;;;5.94;58.20
77299;BME280;66361;52.034;20.656;2024-01-30T13:29:51;101419.94;;;5.92;58.51
77299;BME280;66361;52.034;20.656;2024-01-30T13:33:37;101424.31;;;5.79;59.00
77299;BME280;66361;52.034;20.656;2024-01-30T13:37:21;101434.75;;;5.93;59.07
77299;BME280;66361;52.034;20.656;2024-01-30T13:41:06;101430.41;;;5.87;59.32
77299;BME280;66361;52.034;20.656;2024-01-30T13:44:50;101434.75;;;5.91;59.00
77299;BME280;66361;52.034;20.656;2024-01-30T13:48:37;101421.69;;;5.76;59.73
77299;BME280;66361;52.034;20.656;2024-01-30T13:52:21;101426.94;;;5.73;61.54
77299;BME280;66361;52.034;20.656;2024-01-30T13:56:13;101422.56;;;5.61;60.63
77299;BME280;66361;52.034;20.656;2024-01-30T13:59:56;101422.56;;;5.61;60.44
77299;BME280;66361;52.034;20.656;2024-01-30T14:03:42;101413.84;;;5.67;60.37
77299;BME280;66361;52.034;20.656;2024-01-30T14:07:26;101413.00;;;5.53;60.81
77299;BME280;66361;52.034;20.656;2024-01-30T14:11:10;101417.34;;;5.80;59.32
77299;BME280;66361;52.034;20.656;2024-01-30T14:14:54;101420.81;;;5.42;60.20
77299;BME280;66361;52.034;20.656;2024-01-30T14:18:38;101413.84;;;5.40;61.20
77299;BME280;66361;52.034;20.656;2024-01-30T14:22:25;101407.72;;;5.19;61.83
77299;BME280;66361;52.034;20.656;2024-01-30T14:26:09;101418.13;;;4.95;62.45
77299;BME280;66361;52.034;20.656;2024-01-30T14:29:53;101413.75;;;4.82;62.82
77299;BME280;66361;52.034;20.656;2024-01-30T14:33:38;101411.16;;;4.89;62.02
77299;BME280;66361;52.034;20.656;2024-01-30T14:37:22;101415.47;;;4.77;62.34
77299;BME280;66361;52.034;20.656;2024-01-30T14:41:08;101414.53;;;4.50;63.80
77299;BME280;66361;52.034;20.656;2024-01-30T14:44:52;101414.44;;;4.32;63.88
77299;BME280;66361;52.034;20.656;2024-01-30T14:48:36;101415.19;;;4.11;64.53
77299;BME280;66361;52.034;20.656;2024-01-30T14:52:21;101402.88;;;3.94;65.38
77299;BME280;66361;52.034;20.656;2024-01-30T14:56:05;101407.25;;;3.90;65.63
77299;BME280;66361;52.034;20.656;2024-01-30T14:59:50;101406.19;;;3.65;66.09
77299;BME280;66361;52.034;20.656;2024-01-30T15:03:34;101406.81;;;3.35;66.74
77299;BME280;66361;52.034;20.656;2024-01-30T15:07:20;101401.38;;;3.13;67.45
77299;BME280;66361;52.034;20.656;2024-01-30T15:11:17;101402.97;;;2.99;67.79
77299;BME280;66361;52.034;20.656;2024-01-30T15:15:03;101399.34;;;2.81;68.62
77299;BME280;66361;52.034;20.656;2024-01-30T15:18:47;101403.47;;;2.63;69.69
77299;BME280;66361;52.034;20.656;2024-01-30T15:22:32;101396.31;;;2.45;69.72
77299;BME280;66361;52.034;20.656;2024-01-30T15:26:16;101403.16;;;2.37;70.66
77299;BME280;66361;52.034;20.656;2024-01-30T15:29:59;101396.94;;;2.24;70.58
77299;BME280;66361;52.034;20.656;2024-01-30T15:33:45;101390.84;;;2.22;71.23
77299;BME280;66361;52.034;20.656;2024-01-30T15:37:29;101398.44;;;2.07;72.00
77299;BME280;66361;52.034;20.656;2024-01-30T15:41:13;101400.09;;;2.00;72.91
77299;BME280;66361;52.034;20.656;2024-01-30T15:44:57;101400.75;;;1.87;73.11
77299;BME280;66361;52.034;20.656;2024-01-30T15:48:42;101400.53;;;1.73;72.94
77299;BME280;66361;52.034;20.656;2024-01-30T15:52:27;101397.94;;;1.73;73.17
77299;BME280;66361;52.034;20.656;2024-01-30T15:56:12;101396.03;;;1.62;73.44
77299;BME280;66361;52.034;20.656;2024-01-30T15:59:56;101395.88;;;1.53;73.55
77299;BME280;66361;52.034;20.656;2024-01-30T16:03:40;101384.53;;;1.48;74.70
77299;BME280;66361;52.034;20.656;2024-01-30T16:07:24;101384.50;;;1.43;75.21
77299;BME280;66361;52.034;20.656;2024-01-30T16:11:10;101380.88;;;1.35;75.34
77299;BME280;66361;52.034;20.656;2024-01-30T16:14:54;101385.13;;;1.30;75.90
77299;BME280;66361;52.034;20.656;2024-01-30T16:18:38;101385.94;;;1.26;76.32
77299;BME280;66361;52.034;20.656;2024-01-30T16:22:22;101375.63;;;1.32;76.38
77299;BME280;66361;52.034;20.656;2024-01-30T16:26:06;101371.97;;;1.19;76.66
77299;BME280;66361;52.034;20.656;2024-01-30T16:29:52;101375.44;;;1.20;77.10
77299;BME280;66361;52.034;20.656;2024-01-30T16:33:36;101372.00;;;1.21;77.35
77299;BME280;66361;52.034;20.656;2024-01-30T16:37:20;101370.28;;;1.23;76.81
77299;BME280;66361;52.034;20.656;2024-01-30T16:41:04;101371.16;;;1.22;76.18
77299;BME280;66361;52.034;20.656;2024-01-30T16:44:48;101367.03;;;1.34;76.15
77299;BME280;66361;52.034;20.656;2024-01-30T16:48:36;101371.38;;;1.37;75.92
77299;BME280;66361;52.034;20.656;2024-01-30T16:52:20;101371.41;;;1.38;75.66
77299;BME280;66361;52.034;20.656;2024-01-30T16:56:05;101370.59;;;1.41;74.90
77299;BME280;66361;52.034;20.656;2024-01-30T16:59:49;101362.03;;;1.48;75.41
77299;BME280;66361;52.034;20.656;2024-01-30T17:03:33;101362.19;;;1.57;74.29
77299;BME280;66361;52.034;20.656;2024-01-30T17:07:18;101369.06;;;1.55;74.03
77299;BME280;66361;52.034;20.656;2024-01-30T17:11:02;101355.25;;;1.59;73.85
77299;BME280;66361;52.034;20.656;2024-01-30T17:14:46;101355.44;;;1.70;73.35
77299;BME280;66361;52.034;20.656;2024-01-30T17:18:32;101352.78;;;1.65;73.34
77299;BME280;66361;52.034;20.656;2024-01-30T17:22:17;101352.84;;;1.71;73.62
77299;BME280;66361;52.034;20.656;2024-01-30T17:26:03;101342.41;;;1.68;73.04
77299;BME280;66361;52.034;20.656;2024-01-30T17:29:47;101349.78;;;2.00;71.02
77299;BME280;66361;52.034;20.656;2024-01-30T17:33:31;101352.25;;;1.91;71.85
77299;BME280;66361;52.034;20.656;2024-01-30T17:37:15;101353.84;;;1.83;71.13
77299;BME280;66361;52.034;20.656;2024-01-30T17:41:01;101345.94;;;1.75;71.79
77299;BME280;66361;52.034;20.656;2024-01-30T17:44:54;101341.63;;;1.75;70.83
77299;BME280;66361;52.034;20.656;2024-01-30T17:48:38;101337.34;;;1.79;70.45
77299;BME280;66361;52.034;20.656;2024-01-30T17:52:22;101333.75;;;1.69;70.62
77299;BME280;66361;52.034;20.656;2024-01-30T17:56:08;101321.75;;;1.81;71.03
77299;BME280;66361;52.034;20.656;2024-01-30T17:59:53;101330.53;;;1.87;70.57
77299;BME280;66361;52.034;20.656;2024-01-30T18:03:37;101321.78;;;1.82;70.66
77299;BME280;66361;52.034;20.656;2024-01-30T18:07:21;101320.91;;;1.80;71.18
77299;BME280;66361;52.034;20.656;2024-01-30T18:11:07;101322.66;;;1.83;70.82
77299;BME280;66361;52.034;20.656;2024-01-30T18:14:51;101324.19;;;1.68;71.17
77299;BME280;66361;52.034;20.656;2024-01-30T18:18:36;101320.66;;;1.63;71.75
77299;BME280;66361;52.034;20.656;2024-01-30T18:22:20;101325.00;;;1.66;72.25
77299;BME280;66361;52.034;20.656;2024-01-30T18:26:04;101319.09;;;1.76;71.05
77299;BME280;66361;52.034;20.656;2024-01-30T18:29:50;101323.56;;;1.85;71.01
77299;BME280;66361;52.034;20.656;2024-01-30T18:33:35;101323.41;;;1.74;70.75
77299;BME280;66361;52.034;20.656;2024-01-30T18:37:20;101321.00;;;1.88;71.15
77299;BME280;66361;52.034;20.656;2024-01-30T18:41:04;101321.78;;;1.82;70.01
77299;BME280;66361;52.034;20.656;2024-01-30T18:44:48;101318.25;;;1.77;70.88
77299;BME280;66361;52.034;20.656;2024-01-30T18:48:36;101315.63;;;1.75;71.05
77299;BME280;66361;52.034;20.656;2024-01-30T18:52:21;101325.00;;;1.66;70.22
77299;BME280;66361;52.034;20.656;2024-01-30T18:56:05;101311.78;;;1.49;70.08
77299;BME280;66361;52.034;20.656;2024-01-30T18:59:50;101310.84;;;1.46;70.89
77299;BME280;66361;52.034;20.656;2024-01-30T19:03:36;101315.16;;;1.42;70.97
77299;BME280;66361;52.034;20.656;2024-01-30T19:07:20;101311.69;;;1.42;71.04
77299;BME280;66361;52.034;20.656;2024-01-30T19:11:04;101304.69;;;1.36;71.59
77299;BME280;66361;52.034;20.656;2024-01-30T19:14:48;101321.13;;;1.38;71.34
77299;BME280;66361;52.034;20.656;2024-01-30T19:18:35;101310.75;;;1.36;72.29
77299;BME280;66361;52.034;20.656;2024-01-30T19:22:20;101312.97;;;1.15;72.48
77299;BME280;66361;52.034;20.656;2024-01-30T19:26:04;101308.53;;;1.07;72.80
77299;BME280;66361;52.034;20.656;2024-01-30T19:29:47;101299.63;;;0.91;73.31
77299;BME280;66361;52.034;20.656;2024-01-30T19:33:35;101298.78;;;0.93;72.96